Latest Weather Observations for Wagga Wagga

IDN60801

Issued at 5:35 pm EST Saturday 20 September 2014 (issued every 30 minutes, with the page automatically refreshed every 10 minutes)

About weather observations | Map of weather stations | Latest weather observations for NSW | Other Formats
Station Details ID: 072150 Name: WAGGA WAGGA AMO Lat: -35.16 Lon: 147.46 Height: 212.0 m
Data from the previous 72 hours. | See also: Recent months at Wagga Wagga
Date/Time
EST
Temp
°C
App
Temp
°C
Dew
Point
Rel
Hum
%
Delta-T
°C
Wind Press
QNH
hPa
Press
MSL
hPa
Rain
since 9 am
mm
Dir
 
Spd
km/h
Gust
km/h
Spd
kts
Gust
kts
20/05:30pm 16.2 13.2 5.9 50 5.0 S 11 13 6 7 1023.4 1023.6 0.0
20/05:00pm 18.0 13.7 3.2 37 6.9 SSW 15 17 8 9 1023.0 1023.2 0.0
20/04:30pm 19.1 15.1 2.8 34 7.6 WSW 13 17 7 9 1022.8 1022.9 0.0
20/04:00pm 19.1 15.1 2.8 34 7.6 WSW 13 19 7 10 1022.7 1022.8 0.0
20/03:30pm 19.2 14.7 2.0 31 7.9 W 15 24 8 13 1022.6 1022.7 0.0
20/03:00pm 19.2 15.6 3.0 34 7.6 NW 11 15 6 8 1022.6 1022.7 0.0
20/02:30pm 19.0 16.3 5.4 41 6.7 WSW 9 13 5 7 1022.7 1022.8 0.0
20/02:00pm 17.7 15.3 5.1 43 6.1 S 7 13 4 7 1023.0 1023.2 0.0
20/01:30pm 18.3 16.2 6.0 44 6.1 SSW 6 13 3 7 1023.5 1023.7 0.0
20/01:00pm 17.4 15.1 5.7 46 5.7 WSW 7 13 4 7 1023.8 1024.0 0.0
20/12:30pm 16.7 14.5 5.3 47 5.5 E 6 11 3 6 1024.2 1024.3 0.0
20/12:00pm 16.5 13.8 5.5 48 5.3 SE 9 17 5 9 1024.5 1024.6 0.0
20/11:30am 15.3 13.0 5.5 52 4.7 SSW 7 13 4 7 1024.7 1024.8 0.0
20/11:00am 14.2 11.4 5.1 54 4.3 NNE 9 13 5 7 1025.0 1025.1 0.0
20/10:30am 13.5 10.3 5.2 57 3.9 NE 11 15 6 8 1025.0 1025.1 0.0
20/10:00am 12.6 9.7 4.5 58 3.7 NE 9 13 5 7 1025.1 1025.2 0.0
20/09:30am 11.5 8.7 5.0 64 3.0 E 9 13 5 7 1025.2 1025.3 0.0
20/09:00am 9.7 7.1 4.1 68 2.5 E 7 11 4 6 1025.0 1025.1 0.0
20/08:30am 8.2 5.2 4.1 75 1.8 E 9 11 5 6 1024.9 1025.0 0.0
20/08:00am 6.7 3.9 3.4 79 1.4 ENE 7 9 4 5 1024.8 1024.9 0.0
20/07:30am 4.1 2.4 2.1 87 0.8 CALM 0 0 0 0 1024.5 1024.6 0.0
20/07:00am 1.8 -0.2 -0.1 87 0.7 CALM 0 0 0 0 1024.1 1024.2 0.0
20/06:30am -0.3 -2.5 -1.5 92 0.4 CALM 0 6 0 3 1023.8 1024.0 0.0
20/06:00am 0.9 -1.0 0.4 96 0.2 CALM 0 0 0 0 1023.5 1023.7 0.0
20/05:30am 1.2 -1.9 0.1 92 0.4 E 6 6 3 3 1023.1 1023.3 0.0
20/05:00am 1.4 -0.6 0.0 90 0.5 CALM 0 6 0 3 1022.7 1022.8 0.0
20/04:30am 0.6 -1.4 -0.2 94 0.3 CALM 0 0 0 0 1022.4 1022.5 0.0
20/04:00am 0.4 - - - - CALM 0 0 0 0 1022.2 1022.3 0.0
20/03:30am 0.7 -1.4 -0.5 92 0.4 CALM 0 0 0 0 1022.1 1022.2 0.0
20/03:00am 3.2 0.1 1.4 88 0.7 E 7 9 4 5 1021.9 1022.0 0.0
20/02:30am 4.1 1.1 1.8 85 0.9 N 7 9 4 5 1021.9 1022.0 0.0
20/02:00am 2.8 1.0 1.0 88 0.7 CALM 0 6 0 3 1022.2 1022.3 0.0
20/01:30am 4.1 2.3 1.0 80 1.2 CALM 0 0 0 0 1022.4 1022.5 0.0
20/01:00am 4.3 2.2 1.8 84 1.0 NNE 2 6 1 3 1022.7 1022.8 0.0
20/12:30am 5.1 2.7 1.9 80 1.3 ENE 4 7 2 4 1022.6 1022.7 0.0
20/12:00am 4.5 1.4 1.5 81 1.2 ENE 7 9 4 5 1022.5 1022.6 0.0
 
Date/Time
EST
Temp
°C
App
Temp
°C
Dew
Point
Rel
Hum
%
Delta-T
°C
Wind Press
QNH
hPa
Press
MSL
hPa
Rain
since 9 am
mm
Dir
 
Spd
km/h
Gust
km/h
Spd
kts
Gust
kts
19/11:30pm 6.3 3.2 1.6 72 1.9 N 7 7 4 4 1022.5 1022.6 0.0
19/11:00pm 5.9 3.8 2.0 76 1.6 ENE 2 7 1 4 1022.8 1022.9 0.0
19/10:30pm 6.6 4.9 2.0 72 1.9 CALM 0 0 0 0 1022.8 1022.9 0.0
19/10:00pm 6.1 3.2 1.7 73 1.8 NW 6 7 3 4 1022.9 1023.1 0.0
19/09:30pm 6.8 5.0 1.4 68 2.2 CALM 0 0 0 0 1022.8 1022.9 0.0
19/09:00pm 8.5 4.6 0.9 59 3.1 NW 11 13 6 7 1022.9 1023.1 0.0
19/08:30pm 7.7 4.6 1.6 65 2.5 W 7 9 4 5 1022.9 1023.1 0.0
19/08:00pm 7.3 4.0 2.3 70 2.1 SW 9 11 5 6 1022.6 1022.7 0.0
19/07:30pm 6.6 3.3 2.5 75 1.7 SSW 9 11 5 6 1022.2 1022.3 0.0
19/07:00pm 7.7 3.6 2.5 69 2.2 SW 13 15 7 8 1021.9 1022.0 0.0
19/06:30pm 9.2 5.5 2.1 61 3.0 SW 11 13 6 7 1021.6 1021.7 0.0
19/06:00pm 11.0 7.0 3.0 58 3.5 SW 13 15 7 8 1021.4 1021.5 0.0
19/05:30pm 14.1 9.8 0.9 40 5.7 WSW 13 17 7 9 1021.1 1021.2 0.0
19/05:00pm 15.3 9.8 0.5 36 6.4 SW 19 26 10 14 1020.8 1020.9 0.0
19/04:30pm 16.3 10.7 0.1 33 7.0 WSW 19 26 10 14 1020.6 1020.7 0.0
19/04:00pm 16.7 10.9 -1.4 29 7.6 SW 19 22 10 12 1020.4 1020.5 0.0
19/03:30pm 16.8 11.9 -0.4 31 7.4 WSW 15 22 8 12 1020.4 1020.5 0.0
19/03:00pm 16.5 12.2 0.8 34 6.9 W 13 20 7 11 1020.4 1020.5 0.0
19/02:30pm 16.7 12.8 1.1 35 6.9 WSW 11 19 6 10 1020.6 1020.7 0.0
19/02:00pm 16.2 11.5 0.6 34 6.8 WSW 15 24 8 13 1020.9 1021.0 0.0
19/01:30pm 15.6 11.3 1.3 38 6.3 W 13 24 7 13 1021.1 1021.2 0.0
19/01:00pm 15.2 11.7 3.4 45 5.4 SSW 11 17 6 9 1021.6 1021.7 0.0
19/12:30pm 14.2 11.0 2.9 46 5.1 NW 9 17 5 9 1022.0 1022.1 0.0
19/12:00pm 13.8 10.7 3.7 50 4.6 WSW 9 13 5 7 1022.4 1022.5 0.0
19/11:30am 13.2 10.4 3.2 50 4.5 SSW 7 13 4 7 1022.8 1022.9 0.0
19/11:00am 12.4 9.7 2.9 52 4.2 ENE 6 9 3 5 1023.2 1023.4 0.0
19/10:30am 11.6 9.1 4.8 63 3.1 NNW 7 9 4 5 1023.6 1023.8 0.0
19/10:00am 10.5 8.2 5.0 69 2.5 ENE 6 7 3 4 1024.1 1024.2 0.0
19/09:30am 9.1 6.7 4.4 72 2.1 N 6 11 3 6 1024.4 1024.5 0.0
19/09:00am 7.9 5.2 3.7 75 1.8 N 7 9 4 5 1024.4 1024.5 0.0
19/08:30am 6.2 3.1 3.4 82 1.2 ENE 9 11 5 6 1024.4 1024.5 0.0
19/08:00am 5.0 2.1 2.8 86 0.9 E 7 9 4 5 1024.1 1024.2 0.0
19/07:30am 2.9 1.2 1.9 93 0.4 CALM 0 0 0 0 1023.8 1024.0 0.0
19/07:00am 0.3 -1.7 0.0 98 0.1 CALM 0 0 0 0 1023.4 1023.6 0.0
19/06:30am -0.8 -2.9 -1.1 98 0.1 CALM 0 0 0 0 1023.1 1023.3 0.0
19/06:00am -0.9 -3.1 -1.5 96 0.2 CALM 0 0 0 0 1022.8 1022.9 0.0
19/05:30am -0.4 - - - - CALM 0 0 0 0 1022.6 1022.7 0.0
19/05:00am -1.3 - - - - CALM 0 0 0 0 1022.3 1022.4 0.0
19/04:30am 0.9 -2.4 0.4 96 0.2 ESE 7 9 4 5 1022.0 1022.1 0.0
19/04:00am 0.4 - - - - NE 7 7 4 4 1021.8 1021.9 0.0
19/03:30am 1.8 -1.2 1.0 94 0.3 E 6 9 3 5 1021.8 1021.9 0.0
19/03:00am 2.0 -1.2 0.7 91 0.5 ESE 7 9 4 5 1021.8 1021.9 0.0
19/02:30am 2.5 -0.4 1.5 93 0.4 NE 6 7 3 4 1022.0 1022.1 0.0
19/02:00am 2.3 0.5 1.0 91 0.5 CALM 0 0 0 0 1022.2 1022.3 0.0
19/01:30am 2.5 0.7 1.5 93 0.4 CALM 0 0 0 0 1022.3 1022.4 0.0
19/01:00am 3.0 1.3 1.7 91 0.5 CALM 0 0 0 0 1022.6 1022.7 0.0
19/12:30am 2.0 -0.3 0.4 89 0.6 NE 2 7 1 4 1022.5 1022.6 0.0
19/12:00am 3.9 0.5 1.6 85 0.9 NNE 9 15 5 8 1022.7 1022.8 0.0
 
Date/Time
EST
Temp
°C
App
Temp
°C
Dew
Point
Rel
Hum
%
Delta-T
°C
Wind Press
QNH
hPa
Press
MSL
hPa
Rain
since 9 am
mm
Dir
 
Spd
km/h
Gust
km/h
Spd
kts
Gust
kts
18/11:30pm 5.3 1.6 2.4 81 1.2 NW 11 13 6 7 1022.8 1022.9 0.0
18/11:00pm 4.4 0.6 1.6 82 1.1 W 11 13 6 7 1022.9 1023.1 0.0
18/10:30pm 6.7 2.7 2.6 75 1.7 WNW 13 15 7 8 1023.0 1023.2 0.0
18/10:00pm 6.9 3.9 2.3 72 1.9 NW 7 11 4 6 1023.1 1023.3 0.0
18/09:30pm 7.3 4.3 2.3 70 2.1 NW 7 9 4 5 1022.7 1022.8 0.0
18/09:00pm 6.2 2.9 2.6 78 1.5 NE 9 11 5 6 1022.8 1022.9 0.0
18/08:30pm 7.0 4.6 2.4 72 1.9 WSW 4 7 2 4 1022.5 1022.6 0.0
18/08:00pm 6.9 4.2 2.9 76 1.7 WSW 6 7 3 4 1022.4 1022.5 0.0
18/07:30pm 6.5 3.7 2.9 78 1.5 SW 7 7 4 4 1022.2 1022.3 0.0
18/07:00pm 6.5 2.9 3.2 79 1.4 SSW 11 13 6 7 1021.9 1022.0 0.0
18/06:30pm 8.7 4.7 2.6 65 2.6 SSW 13 15 7 8 1021.6 1021.7 0.0
18/06:00pm 10.2 5.3 1.7 55 3.6 SW 17 20 9 11 1021.5 1021.6 0.0
18/05:30pm 11.5 6.5 1.4 50 4.3 SW 17 26 9 14 1021.2 1021.3 0.0
18/05:00pm 13.1 7.2 1.6 45 5.0 SW 22 28 12 15 1021.0 1021.1 0.0
18/04:30pm 13.7 8.1 0.9 41 5.5 SSW 20 30 11 16 1020.6 1020.7 0.0
18/04:00pm 13.4 7.7 0.7 42 5.4 SW 20 30 11 16 1020.6 1020.7 0.0
18/03:30pm 13.7 7.4 1.5 43 5.3 WSW 24 32 13 17 1020.5 1020.6 0.0
18/03:00pm 14.0 7.7 1.3 42 5.5 SW 24 33 13 18 1020.4 1020.5 0.0
18/02:30pm 15.3 9.3 1.1 38 6.2 SW 22 30 12 16 1020.4 1020.5 0.0
18/02:00pm 12.8 6.5 1.4 46 4.9 WSW 24 30 13 16 1020.4 1020.5 0.0
18/01:30pm 13.7 7.3 1.2 42 5.4 WSW 24 30 13 16 1020.5 1020.6 0.0
18/01:00pm 13.6 8.3 1.7 44 5.2 WSW 19 28 10 15 1020.6 1020.7 0.0
18/12:30pm 13.3 7.9 2.7 48 4.7 WSW 20 28 11 15 1020.9 1021.0 0.0
18/12:00pm 12.8 7.7 3.2 52 4.3 WSW 19 28 10 15 1021.0 1021.1 0.0
18/11:30am 12.1 7.7 2.5 52 4.2 WSW 15 24 8 13 1021.5 1021.6 0.0
18/11:00am 11.3 6.2 2.9 56 3.7 WSW 19 24 10 13 1021.8 1021.9 0.0
18/10:30am 10.8 6.1 3.3 60 3.3 WSW 17 28 9 15 1022.0 1022.1 0.0
18/10:00am 10.2 4.9 3.1 61 3.1 WSW 20 28 11 15 1022.2 1022.3 0.0
18/09:30am 9.3 5.3 2.8 64 2.8 WSW 13 17 7 9 1022.0 1022.1 0.0
18/09:00am 8.7 4.0 2.9 67 2.5 WSW 17 26 9 14 1022.0 1022.1 0.2
18/08:30am 7.5 3.2 3.5 76 1.7 SW 15 19 8 10 1021.9 1022.0 0.2
18/08:00am 6.7 2.4 3.2 78 1.5 WSW 15 24 8 13 1021.7 1021.8 0.2
18/07:30am 5.6 2.3 2.7 81 1.2 W 9 17 5 9 1021.4 1021.5 0.2
18/07:00am 4.0 1.0 1.7 85 0.9 NW 7 11 4 6 1021.0 1021.1 0.2
18/06:30am 2.8 -2.3 1.0 88 0.7 WSW 17 19 9 10 1020.5 1020.6 0.2
18/06:00am 2.4 -2.3 0.8 89 0.6 WSW 15 19 8 10 1020.2 1020.3 0.2
18/05:30am 3.1 -2.2 1.6 90 0.6 WSW 19 22 10 12 1019.9 1020.0 0.2
18/05:00am 2.4 -1.9 1.1 91 0.5 SW 13 15 7 8 1019.5 1019.6 0.2
18/04:30am 4.1 -0.1 1.6 84 1.0 WSW 13 17 7 9 1019.1 1019.2 0.2
18/04:00am 3.7 -1.2 1.7 87 0.8 W 17 20 9 11 1018.9 1019.1 0.2
18/03:30am 3.7 -0.9 1.4 85 0.9 WSW 15 17 8 9 1018.8 1018.9 0.2
18/03:00am 4.2 -0.7 1.7 84 1.0 WSW 17 19 9 10 1018.7 1018.8 0.2
18/02:30am 4.2 -1.1 1.7 84 1.0 W 19 20 10 11 1018.6 1018.7 0.2
18/02:00am 4.3 -0.7 1.5 82 1.1 W 17 20 9 11 1018.7 1018.8 0.2
18/01:30am 5.0 0.4 1.8 80 1.3 WSW 15 19 8 10 1018.8 1018.9 0.2
18/01:00am 4.8 -0.1 1.8 81 1.2 W 17 19 9 10 1018.9 1019.1 0.2
18/12:30am 6.4 1.5 2.0 73 1.8 WSW 17 19 9 10 1018.8 1018.9 0.2
18/12:00am 6.9 2.3 1.8 70 2.1 WSW 15 17 8 9 1018.6 1018.7 0.2
 
Date/Time
EST
Temp
°C
App
Temp
°C
Dew
Point
Rel
Hum
%
Delta-T
°C
Wind Press
QNH
hPa
Press
MSL
hPa
Rain
since 9 am
mm
Dir
 
Spd
km/h
Gust
km/h
Spd
kts
Gust
kts
17/11:30pm 6.3 1.4 2.2 75 1.7 WSW 17 19 9 10 1018.4 1018.5 0.2
17/11:00pm 7.3 2.4 2.0 69 2.2 SW 17 20 9 11 1018.2 1018.3 0.2
17/10:30pm 8.0 3.5 2.0 66 2.5 WSW 15 19 8 10 1018.2 1018.3 0.2
17/10:00pm 7.2 2.3 2.1 70 2.1 WSW 17 19 9 10 1017.8 1017.9 0.2
17/09:30pm 7.7 3.6 2.2 68 2.3 WSW 13 15 7 8 1017.5 1017.6 0.2
17/09:00pm 7.1 3.1 2.8 74 1.8 W 13 19 7 10 1017.2 1017.3 0.2
17/08:30pm 7.9 4.2 2.4 68 2.3 WSW 11 13 6 7 1016.8 1016.9 0.2
17/08:00pm 8.1 4.0 2.4 67 2.4 WSW 13 13 7 7 1016.5 1016.6 0.2
17/07:30pm 7.7 3.6 2.2 68 2.3 WSW 13 15 7 8 1016.2 1016.3 0.2
17/07:00pm 9.8 5.3 2.0 58 3.3 WSW 15 17 8 9 1016.0 1016.1 0.2
17/06:30pm 10.7 5.8 1.8 54 3.8 WSW 17 20 9 11 1015.7 1015.8 0.2
17/06:00pm 12.1 6.2 1.4 48 4.6 WSW 22 30 12 16 1015.4 1015.5 0.2

Other Formats:

Comma delimited format used in spreadsheet applications
http://www.bom.gov.au/fwo/IDN60801/IDN60801.94910.axf

JavaScript Object Notation format (JSON) in row-major order
http://www.bom.gov.au/fwo/IDN60801/IDN60801.94910.json